sensor_id;sensor_type;location;lat;lon;timestamp;P1;durP1;ratioP1;P2;durP2;ratioP2
19301;SDS011;9785;59.362;12.152;2022-08-21T00:00:24;16.10;;;2.90;;
19301;SDS011;9785;59.362;12.152;2022-08-21T00:02:54;15.20;;;3.03;;
19301;SDS011;9785;59.362;12.152;2022-08-21T00:05:24;12.50;;;3.00;;
19301;SDS011;9785;59.362;12.152;2022-08-21T00:07:53;13.03;;;3.00;;
19301;SDS011;9785;59.362;12.152;2022-08-21T00:10:22;12.13;;;2.87;;
19301;SDS011;9785;59.362;12.152;2022-08-21T00:12:51;16.80;;;2.93;;
19301;SDS011;9785;59.362;12.152;2022-08-21T00:15:20;15.27;;;2.77;;
19301;SDS011;9785;59.362;12.152;2022-08-21T00:17:51;14.27;;;2.60;;
19301;SDS011;9785;59.362;12.152;2022-08-21T00:20:20;17.93;;;3.00;;
19301;SDS011;9785;59.362;12.152;2022-08-21T00:22:48;16.43;;;3.00;;
19301;SDS011;9785;59.362;12.152;2022-08-21T00:25:18;14.03;;;3.20;;
19301;SDS011;9785;59.362;12.152;2022-08-21T00:27:51;17.50;;;3.53;;
19301;SDS011;9785;59.362;12.152;2022-08-21T00:30:20;14.20;;;3.07;;
19301;SDS011;9785;59.362;12.152;2022-08-21T00:32:49;24.33;;;3.43;;
19301;SDS011;9785;59.362;12.152;2022-08-21T00:35:21;12.77;;;3.30;;
19301;SDS011;9785;59.362;12.152;2022-08-21T00:37:50;11.77;;;3.07;;
19301;SDS011;9785;59.362;12.152;2022-08-21T00:40:21;15.07;;;3.03;;
19301;SDS011;9785;59.362;12.152;2022-08-21T00:42:50;16.43;;;3.60;;
19301;SDS011;9785;59.362;12.152;2022-08-21T00:45:19;16.10;;;3.20;;
19301;SDS011;9785;59.362;12.152;2022-08-21T00:47:48;17.57;;;3.20;;
19301;SDS011;9785;59.362;12.152;2022-08-21T00:50:16;16.10;;;3.13;;
19301;SDS011;9785;59.362;12.152;2022-08-21T00:52:48;18.80;;;3.50;;
19301;SDS011;9785;59.362;12.152;2022-08-21T00:55:18;19.07;;;3.90;;
19301;SDS011;9785;59.362;12.152;2022-08-21T00:57:49;14.07;;;3.20;;
19301;SDS011;9785;59.362;12.152;2022-08-21T01:00:21;21.50;;;3.03;;
19301;SDS011;9785;59.362;12.152;2022-08-21T01:02:49;18.27;;;3.33;;
19301;SDS011;9785;59.362;12.152;2022-08-21T01:05:18;19.47;;;3.40;;
19301;SDS011;9785;59.362;12.152;2022-08-21T01:07:46;14.57;;;3.17;;
19301;SDS011;9785;59.362;12.152;2022-08-21T01:10:16;12.77;;;3.47;;
19301;SDS011;9785;59.362;12.152;2022-08-21T01:12:49;13.90;;;3.10;;
19301;SDS011;9785;59.362;12.152;2022-08-21T01:15:18;14.47;;;3.60;;
19301;SDS011;9785;59.362;12.152;2022-08-21T01:17:47;12.83;;;3.07;;
19301;SDS011;9785;59.362;12.152;2022-08-21T01:20:16;20.90;;;3.40;;
19301;SDS011;9785;59.362;12.152;2022-08-21T01:22:46;14.73;;;3.30;;
19301;SDS011;9785;59.362;12.152;2022-08-21T01:25:15;19.37;;;3.27;;
19301;SDS011;9785;59.362;12.152;2022-08-21T01:27:45;14.00;;;2.90;;
19301;SDS011;9785;59.362;12.152;2022-08-21T01:30:16;11.03;;;3.17;;
19301;SDS011;9785;59.362;12.152;2022-08-21T01:32:46;16.23;;;2.97;;
19301;SDS011;9785;59.362;12.152;2022-08-21T01:35:16;12.67;;;3.20;;
19301;SDS011;9785;59.362;12.152;2022-08-21T01:37:46;16.73;;;3.07;;
19301;SDS011;9785;59.362;12.152;2022-08-21T01:40:15;10.50;;;2.70;;
19301;SDS011;9785;59.362;12.152;2022-08-21T01:42:44;15.63;;;2.77;;
19301;SDS011;9785;59.362;12.152;2022-08-21T01:45:13;12.77;;;2.87;;
19301;SDS011;9785;59.362;12.152;2022-08-21T01:47:42;15.40;;;2.67;;
19301;SDS011;9785;59.362;12.152;2022-08-21T01:50:12;10.63;;;2.77;;
19301;SDS011;9785;59.362;12.152;2022-08-21T01:52:40;11.90;;;2.40;;
19301;SDS011;9785;59.362;12.152;2022-08-21T01:55:11;16.10;;;3.00;;
19301;SDS011;9785;59.362;12.152;2022-08-21T01:57:40;14.33;;;2.77;;
19301;SDS011;9785;59.362;12.152;2022-08-21T02:00:09;12.47;;;2.80;;
19301;SDS011;9785;59.362;12.152;2022-08-21T02:02:39;15.23;;;2.50;;
19301;SDS011;9785;59.362;12.152;2022-08-21T02:05:09;15.67;;;2.77;;
19301;SDS011;9785;59.362;12.152;2022-08-21T02:07:38;15.27;;;2.70;;
19301;SDS011;9785;59.362;12.152;2022-08-21T02:10:07;18.67;;;3.00;;
19301;SDS011;9785;59.362;12.152;2022-08-21T02:12:37;17.80;;;2.73;;
19301;SDS011;9785;59.362;12.152;2022-08-21T02:15:06;13.10;;;2.83;;
19301;SDS011;9785;59.362;12.152;2022-08-21T02:17:39;10.27;;;2.97;;
19301;SDS011;9785;59.362;12.152;2022-08-21T02:20:08;12.10;;;3.30;;
19301;SDS011;9785;59.362;12.152;2022-08-21T02:22:37;8.33;;;2.60;;
19301;SDS011;9785;59.362;12.152;2022-08-21T02:25:06;8.17;;;2.63;;
19301;SDS011;9785;59.362;12.152;2022-08-21T02:27:38;8.80;;;2.50;;
19301;SDS011;9785;59.362;12.152;2022-08-21T02:30:08;16.63;;;2.73;;
19301;SDS011;9785;59.362;12.152;2022-08-21T02:32:37;13.60;;;2.47;;
19301;SDS011;9785;59.362;12.152;2022-08-21T02:35:06;7.73;;;2.40;;
19301;SDS011;9785;59.362;12.152;2022-08-21T02:37:42;6.47;;;2.33;;
19301;SDS011;9785;59.362;12.152;2022-08-21T02:40:10;11.47;;;2.40;;
19301;SDS011;9785;59.362;12.152;2022-08-21T02:42:40;8.27;;;2.17;;
19301;SDS011;9785;59.362;12.152;2022-08-21T02:45:11;11.23;;;2.70;;
19301;SDS011;9785;59.362;12.152;2022-08-21T02:47:40;14.87;;;2.30;;
19301;SDS011;9785;59.362;12.152;2022-08-21T02:50:08;15.60;;;2.50;;
19301;SDS011;9785;59.362;12.152;2022-08-21T02:52:37;7.43;;;2.20;;
19301;SDS011;9785;59.362;12.152;2022-08-21T02:55:06;10.97;;;2.23;;
19301;SDS011;9785;59.362;12.152;2022-08-21T02:57:35;6.33;;;2.10;;
19301;SDS011;9785;59.362;12.152;2022-08-21T03:00:05;7.73;;;2.10;;
19301;SDS011;9785;59.362;12.152;2022-08-21T03:02:34;10.57;;;2.60;;
19301;SDS011;9785;59.362;12.152;2022-08-21T03:05:03;9.17;;;2.20;;
19301;SDS011;9785;59.362;12.152;2022-08-21T03:07:31;8.70;;;2.30;;
19301;SDS011;9785;59.362;12.152;2022-08-21T03:10:00;9.77;;;2.37;;
19301;SDS011;9785;59.362;12.152;2022-08-21T03:12:28;8.90;;;2.27;;
19301;SDS011;9785;59.362;12.152;2022-08-21T03:14:57;9.37;;;2.30;;
19301;SDS011;9785;59.362;12.152;2022-08-21T03:17:27;4.50;;;2.30;;
19301;SDS011;9785;59.362;12.152;2022-08-21T03:19:56;7.17;;;2.00;;
19301;SDS011;9785;59.362;12.152;2022-08-21T03:22:24;8.40;;;2.47;;
19301;SDS011;9785;59.362;12.152;2022-08-21T03:24:55;4.87;;;1.93;;
19301;SDS011;9785;59.362;12.152;2022-08-21T03:27:25;5.80;;;2.23;;
19301;SDS011;9785;59.362;12.152;2022-08-21T03:29:55;8.33;;;2.30;;
19301;SDS011;9785;59.362;12.152;2022-08-21T03:32:23;6.87;;;2.07;;
19301;SDS011;9785;59.362;12.152;2022-08-21T03:34:53;10.87;;;2.60;;
19301;SDS011;9785;59.362;12.152;2022-08-21T03:37:22;6.80;;;2.27;;
19301;SDS011;9785;59.362;12.152;2022-08-21T03:39:50;8.23;;;2.53;;
19301;SDS011;9785;59.362;12.152;2022-08-21T03:42:19;5.53;;;2.20;;
19301;SDS011;9785;59.362;12.152;2022-08-21T03:44:47;7.60;;;2.30;;
19301;SDS011;9785;59.362;12.152;2022-08-21T03:47:16;7.17;;;2.50;;
19301;SDS011;9785;59.362;12.152;2022-08-21T03:49:44;5.87;;;2.43;;
19301;SDS011;9785;59.362;12.152;2022-08-21T03:52:14;7.87;;;2.47;;
19301;SDS011;9785;59.362;12.152;2022-08-21T03:54:43;10.40;;;3.00;;
19301;SDS011;9785;59.362;12.152;2022-08-21T03:57:11;2.97;;;2.40;;
19301;SDS011;9785;59.362;12.152;2022-08-21T03:59:42;5.70;;;2.40;;
19301;SDS011;9785;59.362;12.152;2022-08-21T04:02:10;16.07;;;2.67;;
19301;SDS011;9785;59.362;12.152;2022-08-21T04:04:40;15.30;;;2.60;;
19301;SDS011;9785;59.362;12.152;2022-08-21T04:07:08;8.23;;;2.77;;
19301;SDS011;9785;59.362;12.152;2022-08-21T04:09:38;6.30;;;2.47;;
19301;SDS011;9785;59.362;12.152;2022-08-21T04:12:07;11.17;;;2.90;;
19301;SDS011;9785;59.362;12.152;2022-08-21T04:14:36;11.97;;;2.73;;
19301;SDS011;9785;59.362;12.152;2022-08-21T04:17:04;7.03;;;2.30;;
19301;SDS011;9785;59.362;12.152;2022-08-21T04:19:33;11.67;;;2.83;;
19301;SDS011;9785;59.362;12.152;2022-08-21T04:22:01;15.03;;;3.20;;
19301;SDS011;9785;59.362;12.152;2022-08-21T04:24:30;11.30;;;2.90;;
19301;SDS011;9785;59.362;12.152;2022-08-21T04:27:00;18.73;;;4.27;;
19301;SDS011;9785;59.362;12.152;2022-08-21T04:29:28;12.07;;;3.63;;
19301;SDS011;9785;59.362;12.152;2022-08-21T04:31:57;25.47;;;4.67;;
19301;SDS011;9785;59.362;12.152;2022-08-21T04:34:25;12.97;;;4.00;;
19301;SDS011;9785;59.362;12.152;2022-08-21T04:36:54;17.23;;;4.00;;
19301;SDS011;9785;59.362;12.152;2022-08-21T04:39:22;12.53;;;3.83;;
19301;SDS011;9785;59.362;12.152;2022-08-21T04:41:55;22.03;;;3.90;;
19301;SDS011;9785;59.362;12.152;2022-08-21T04:44:25;17.10;;;3.90;;
19301;SDS011;9785;59.362;12.152;2022-08-21T04:46:53;13.30;;;4.10;;
19301;SDS011;9785;59.362;12.152;2022-08-21T04:49:22;13.07;;;4.30;;
19301;SDS011;9785;59.362;12.152;2022-08-21T04:51:50;14.30;;;4.23;;
19301;SDS011;9785;59.362;12.152;2022-08-21T04:54:20;16.50;;;4.33;;
19301;SDS011;9785;59.362;12.152;2022-08-21T04:56:49;15.07;;;4.00;;
19301;SDS011;9785;59.362;12.152;2022-08-21T04:59:21;23.50;;;4.73;;
19301;SDS011;9785;59.362;12.152;2022-08-21T05:01:52;14.00;;;4.00;;
19301;SDS011;9785;59.362;12.152;2022-08-21T05:04:24;25.10;;;4.10;;
19301;SDS011;9785;59.362;12.152;2022-08-21T05:06:53;15.27;;;3.60;;
19301;SDS011;9785;59.362;12.152;2022-08-21T05:09:22;13.43;;;4.03;;
19301;SDS011;9785;59.362;12.152;2022-08-21T05:11:52;11.07;;;3.80;;
19301;SDS011;9785;59.362;12.152;2022-08-21T05:14:20;11.77;;;3.17;;
19301;SDS011;9785;59.362;12.152;2022-08-21T05:16:49;13.93;;;3.30;;
19301;SDS011;9785;59.362;12.152;2022-08-21T05:19:19;8.93;;;3.37;;
19301;SDS011;9785;59.362;12.152;2022-08-21T05:21:47;8.70;;;2.90;;
19301;SDS011;9785;59.362;12.152;2022-08-21T05:24:16;6.10;;;2.87;;
19301;SDS011;9785;59.362;12.152;2022-08-21T05:26:45;9.97;;;3.07;;
19301;SDS011;9785;59.362;12.152;2022-08-21T05:29:13;9.30;;;2.87;;
19301;SDS011;9785;59.362;12.152;2022-08-21T05:31:44;10.00;;;2.87;;
19301;SDS011;9785;59.362;12.152;2022-08-21T05:34:13;6.47;;;2.67;;
19301;SDS011;9785;59.362;12.152;2022-08-21T05:36:43;10.10;;;2.80;;
19301;SDS011;9785;59.362;12.152;2022-08-21T05:39:12;12.20;;;2.90;;
19301;SDS011;9785;59.362;12.152;2022-08-21T05:41:40;11.17;;;2.80;;
19301;SDS011;9785;59.362;12.152;2022-08-21T05:44:09;9.33;;;2.67;;
19301;SDS011;9785;59.362;12.152;2022-08-21T05:46:37;8.70;;;2.40;;
19301;SDS011;9785;59.362;12.152;2022-08-21T05:49:06;7.17;;;2.50;;
19301;SDS011;9785;59.362;12.152;2022-08-21T05:51:34;5.27;;;2.07;;
19301;SDS011;9785;59.362;12.152;2022-08-21T05:54:04;5.30;;;2.60;;
19301;SDS011;9785;59.362;12.152;2022-08-21T05:56:33;8.23;;;2.17;;
19301;SDS011;9785;59.362;12.152;2022-08-21T05:59:01;8.70;;;2.40;;
19301;SDS011;9785;59.362;12.152;2022-08-21T06:01:34;5.17;;;2.10;;
19301;SDS011;9785;59.362;12.152;2022-08-21T06:04:02;11.43;;;2.20;;
19301;SDS011;9785;59.362;12.152;2022-08-21T06:06:31;6.30;;;2.10;;
19301;SDS011;9785;59.362;12.152;2022-08-21T06:08:59;3.87;;;2.10;;
19301;SDS011;9785;59.362;12.152;2022-08-21T06:11:30;8.80;;;2.13;;
19301;SDS011;9785;59.362;12.152;2022-08-21T06:13:58;5.87;;;1.70;;
19301;SDS011;9785;59.362;12.152;2022-08-21T06:16:27;7.87;;;2.37;;
19301;SDS011;9785;59.362;12.152;2022-08-21T06:18:56;2.17;;;1.60;;
19301;SDS011;9785;59.362;12.152;2022-08-21T06:21:28;7.87;;;2.03;;
19301;SDS011;9785;59.362;12.152;2022-08-21T06:23:57;6.43;;;2.10;;
19301;SDS011;9785;59.362;12.152;2022-08-21T06:26:25;3.87;;;1.80;;
19301;SDS011;9785;59.362;12.152;2022-08-21T06:28:55;6.77;;;1.83;;
19301;SDS011;9785;59.362;12.152;2022-08-21T06:31:24;4.43;;;1.97;;
19301;SDS011;9785;59.362;12.152;2022-08-21T06:33:53;7.80;;;1.87;;
19301;SDS011;9785;59.362;12.152;2022-08-21T06:36:22;7.00;;;1.97;;
19301;SDS011;9785;59.362;12.152;2022-08-21T06:38:50;7.13;;;2.00;;
19301;SDS011;9785;59.362;12.152;2022-08-21T06:41:23;5.23;;;1.70;;
19301;SDS011;9785;59.362;12.152;2022-08-21T06:43:52;7.27;;;2.10;;
19301;SDS011;9785;59.362;12.152;2022-08-21T06:46:23;5.00;;;2.07;;
19301;SDS011;9785;59.362;12.152;2022-08-21T06:48:51;5.00;;;1.60;;
19301;SDS011;9785;59.362;12.152;2022-08-21T06:51:20;10.10;;;2.00;;
19301;SDS011;9785;59.362;12.152;2022-08-21T06:53:49;5.13;;;2.10;;
19301;SDS011;9785;59.362;12.152;2022-08-21T06:56:17;3.63;;;1.60;;
19301;SDS011;9785;59.362;12.152;2022-08-21T06:58:45;4.70;;;1.77;;
19301;SDS011;9785;59.362;12.152;2022-08-21T07:01:14;6.50;;;1.87;;
19301;SDS011;9785;59.362;12.152;2022-08-21T07:03:44;6.27;;;1.60;;
19301;SDS011;9785;59.362;12.152;2022-08-21T07:06:13;3.00;;;1.60;;
19301;SDS011;9785;59.362;12.152;2022-08-21T07:08:41;5.43;;;2.47;;
19301;SDS011;9785;59.362;12.152;2022-08-21T07:11:12;3.10;;;1.70;;
19301;SDS011;9785;59.362;12.152;2022-08-21T07:13:41;4.97;;;2.03;;
19301;SDS011;9785;59.362;12.152;2022-08-21T07:16:09;4.23;;;1.90;;
19301;SDS011;9785;59.362;12.152;2022-08-21T07:18:37;6.23;;;1.90;;
19301;SDS011;9785;59.362;12.152;2022-08-21T07:21:07;6.37;;;2.10;;
19301;SDS011;9785;59.362;12.152;2022-08-21T07:23:37;5.90;;;1.90;;
19301;SDS011;9785;59.362;12.152;2022-08-21T07:26:06;5.70;;;1.97;;
19301;SDS011;9785;59.362;12.152;2022-08-21T07:28:34;9.63;;;2.07;;
19301;SDS011;9785;59.362;12.152;2022-08-21T07:31:03;3.53;;;1.67;;
19301;SDS011;9785;59.362;12.152;2022-08-21T07:33:33;8.97;;;1.97;;
19301;SDS011;9785;59.362;12.152;2022-08-21T07:36:02;6.03;;;1.80;;
19301;SDS011;9785;59.362;12.152;2022-08-21T07:38:32;4.87;;;1.80;;
19301;SDS011;9785;59.362;12.152;2022-08-21T07:41:01;7.77;;;2.00;;
19301;SDS011;9785;59.362;12.152;2022-08-21T07:43:29;4.90;;;1.60;;
19301;SDS011;9785;59.362;12.152;2022-08-21T07:45:58;7.47;;;2.00;;
19301;SDS011;9785;59.362;12.152;2022-08-21T07:48:26;5.77;;;1.50;;
19301;SDS011;9785;59.362;12.152;2022-08-21T07:50:54;5.27;;;1.60;;
19301;SDS011;9785;59.362;12.152;2022-08-21T07:53:23;5.17;;;1.70;;
19301;SDS011;9785;59.362;12.152;2022-08-21T07:55:53;4.10;;;1.50;;
19301;SDS011;9785;59.362;12.152;2022-08-21T07:58:25;4.80;;;1.70;;
19301;SDS011;9785;59.362;12.152;2022-08-21T08:00:53;7.73;;;1.80;;
19301;SDS011;9785;59.362;12.152;2022-08-21T08:03:21;4.33;;;1.50;;
19301;SDS011;9785;59.362;12.152;2022-08-21T08:05:55;12.07;;;2.00;;
19301;SDS011;9785;59.362;12.152;2022-08-21T08:08:24;2.87;;;1.63;;
19301;SDS011;9785;59.362;12.152;2022-08-21T08:10:53;6.40;;;1.77;;
19301;SDS011;9785;59.362;12.152;2022-08-21T08:13:24;4.70;;;1.50;;
19301;SDS011;9785;59.362;12.152;2022-08-21T08:15:53;6.10;;;1.40;;
19301;SDS011;9785;59.362;12.152;2022-08-21T08:18:21;4.20;;;1.40;;
19301;SDS011;9785;59.362;12.152;2022-08-21T08:20:50;5.40;;;1.80;;
19301;SDS011;9785;59.362;12.152;2022-08-21T08:23:18;4.27;;;1.47;;
19301;SDS011;9785;59.362;12.152;2022-08-21T08:25:46;4.37;;;1.70;;
19301;SDS011;9785;59.362;12.152;2022-08-21T08:28:16;7.00;;;1.67;;
19301;SDS011;9785;59.362;12.152;2022-08-21T08:30:45;6.37;;;1.70;;
19301;SDS011;9785;59.362;12.152;2022-08-21T08:33:14;5.60;;;1.70;;
19301;SDS011;9785;59.362;12.152;2022-08-21T08:35:44;5.53;;;1.70;;
19301;SDS011;9785;59.362;12.152;2022-08-21T08:38:14;6.17;;;1.70;;
19301;SDS011;9785;59.362;12.152;2022-08-21T08:40:47;3.23;;;1.43;;
19301;SDS011;9785;59.362;12.152;2022-08-21T08:43:20;5.70;;;1.50;;
19301;SDS011;9785;59.362;12.152;2022-08-21T08:45:49;5.00;;;1.80;;
19301;SDS011;9785;59.362;12.152;2022-08-21T08:48:21;5.90;;;1.63;;
19301;SDS011;9785;59.362;12.152;2022-08-21T08:50:56;8.30;;;1.80;;
19301;SDS011;9785;59.362;12.152;2022-08-21T08:53:25;6.37;;;1.80;;
19301;SDS011;9785;59.362;12.152;2022-08-21T08:55:56;3.90;;;1.60;;
19301;SDS011;9785;59.362;12.152;2022-08-21T08:58:27;2.60;;;1.43;;
19301;SDS011;9785;59.362;12.152;2022-08-21T09:00:56;9.87;;;1.80;;
19301;SDS011;9785;59.362;12.152;2022-08-21T09:03:26;6.23;;;1.67;;
19301;SDS011;9785;59.362;12.152;2022-08-21T09:05:56;8.33;;;2.17;;
19301;SDS011;9785;59.362;12.152;2022-08-21T09:08:36;5.13;;;1.73;;
19301;SDS011;9785;59.362;12.152;2022-08-21T09:11:13;4.30;;;1.70;;
19301;SDS011;9785;59.362;12.152;2022-08-21T09:13:46;5.20;;;1.70;;
19301;SDS011;9785;59.362;12.152;2022-08-21T09:16:20;5.87;;;1.70;;
19301;SDS011;9785;59.362;12.152;2022-08-21T09:18:54;6.00;;;1.57;;
19301;SDS011;9785;59.362;12.152;2022-08-21T09:21:28;3.93;;;1.53;;
19301;SDS011;9785;59.362;12.152;2022-08-21T09:24:00;6.63;;;1.80;;
19301;SDS011;9785;59.362;12.152;2022-08-21T09:26:45;6.73;;;1.70;;
19301;SDS011;9785;59.362;12.152;2022-08-21T09:29:17;4.20;;;1.63;;
19301;SDS011;9785;59.362;12.152;2022-08-21T09:31:47;4.17;;;1.33;;
19301;SDS011;9785;59.362;12.152;2022-08-21T09:34:23;4.13;;;1.70;;
19301;SDS011;9785;59.362;12.152;2022-08-21T09:36:52;3.43;;;1.60;;
19301;SDS011;9785;59.362;12.152;2022-08-21T09:39:24;6.07;;;2.13;;
19301;SDS011;9785;59.362;12.152;2022-08-21T09:41:56;2.87;;;1.40;;
19301;SDS011;9785;59.362;12.152;2022-08-21T09:44:27;2.10;;;1.53;;
19301;SDS011;9785;59.362;12.152;2022-08-21T09:46:56;2.27;;;1.50;;
19301;SDS011;9785;59.362;12.152;2022-08-21T09:49:27;7.60;;;1.90;;
19301;SDS011;9785;59.362;12.152;2022-08-21T09:51:56;4.60;;;1.70;;
19301;SDS011;9785;59.362;12.152;2022-08-21T09:54:26;4.80;;;1.70;;
19301;SDS011;9785;59.362;12.152;2022-08-21T09:56:58;6.57;;;1.70;;
19301;SDS011;9785;59.362;12.152;2022-08-21T09:59:46;6.03;;;1.60;;
19301;SDS011;9785;59.362;12.152;2022-08-21T10:02:26;4.70;;;1.60;;
19301;SDS011;9785;59.362;12.152;2022-08-21T10:04:56;3.93;;;1.60;;
19301;SDS011;9785;59.362;12.152;2022-08-21T10:07:26;1.83;;;1.53;;
19301;SDS011;9785;59.362;12.152;2022-08-21T10:09:58;4.53;;;1.67;;
19301;SDS011;9785;59.362;12.152;2022-08-21T10:12:28;4.47;;;1.47;;
19301;SDS011;9785;59.362;12.152;2022-08-21T10:15:01;7.27;;;2.17;;
19301;SDS011;9785;59.362;12.152;2022-08-21T10:17:36;4.20;;;1.70;;
19301;SDS011;9785;59.362;12.152;2022-08-21T10:20:07;3.27;;;1.63;;
19301;SDS011;9785;59.362;12.152;2022-08-21T10:22:38;4.43;;;1.90;;
19301;SDS011;9785;59.362;12.152;2022-08-21T10:25:12;2.83;;;1.70;;
19301;SDS011;9785;59.362;12.152;2022-08-21T10:27:44;2.77;;;1.57;;
19301;SDS011;9785;59.362;12.152;2022-08-21T10:30:18;3.03;;;1.60;;
19301;SDS011;9785;59.362;12.152;2022-08-21T10:32:54;4.33;;;1.77;;
19301;SDS011;9785;59.362;12.152;2022-08-21T10:35:26;2.90;;;1.60;;
19301;SDS011;9785;59.362;12.152;2022-08-21T10:41:06;4.43;;;1.53;;
19301;SDS011;9785;59.362;12.152;2022-08-21T10:43:39;2.33;;;1.60;;
19301;SDS011;9785;59.362;12.152;2022-08-21T10:46:13;4.87;;;1.57;;
19301;SDS011;9785;59.362;12.152;2022-08-21T10:48:46;4.67;;;1.60;;
19301;SDS011;9785;59.362;12.152;2022-08-21T10:51:15;3.73;;;1.70;;
19301;SDS011;9785;59.362;12.152;2022-08-21T10:53:55;3.07;;;1.63;;
19301;SDS011;9785;59.362;12.152;2022-08-21T10:56:29;5.47;;;2.47;;
19301;SDS011;9785;59.362;12.152;2022-08-21T10:59:00;2.80;;;1.80;;
19301;SDS011;9785;59.362;12.152;2022-08-21T11:01:34;2.73;;;1.70;;
19301;SDS011;9785;59.362;12.152;2022-08-21T11:04:09;3.30;;;1.63;;
19301;SDS011;9785;59.362;12.152;2022-08-21T11:06:40;4.03;;;1.60;;
19301;SDS011;9785;59.362;12.152;2022-08-21T11:09:11;4.27;;;1.67;;
19301;SDS011;9785;59.362;12.152;2022-08-21T11:11:41;5.93;;;1.90;;
19301;SDS011;9785;59.362;12.152;2022-08-21T11:14:25;1.97;;;1.50;;
19301;SDS011;9785;59.362;12.152;2022-08-21T11:17:02;3.90;;;1.43;;
19301;SDS011;9785;59.362;12.152;2022-08-21T11:19:39;3.90;;;1.87;;
19301;SDS011;9785;59.362;12.152;2022-08-21T11:22:11;2.57;;;1.47;;
19301;SDS011;9785;59.362;12.152;2022-08-21T11:24:42;3.27;;;1.70;;
19301;SDS011;9785;59.362;12.152;2022-08-21T11:27:14;4.97;;;2.00;;
19301;SDS011;9785;59.362;12.152;2022-08-21T11:29:44;4.83;;;1.67;;
19301;SDS011;9785;59.362;12.152;2022-08-21T11:32:33;3.70;;;1.70;;
19301;SDS011;9785;59.362;12.152;2022-08-21T11:35:08;5.00;;;1.60;;
19301;SDS011;9785;59.362;12.152;2022-08-21T11:37:43;4.27;;;1.60;;
19301;SDS011;9785;59.362;12.152;2022-08-21T11:40:16;4.20;;;1.90;;
19301;SDS011;9785;59.362;12.152;2022-08-21T11:42:48;4.47;;;1.40;;
19301;SDS011;9785;59.362;12.152;2022-08-21T11:45:19;5.00;;;1.60;;
19301;SDS011;9785;59.362;12.152;2022-08-21T11:47:56;3.03;;;1.30;;
19301;SDS011;9785;59.362;12.152;2022-08-21T11:50:27;4.72;;;1.50;;
19301;SDS011;9785;59.362;12.152;2022-08-21T11:53:01;2.63;;;1.40;;
19301;SDS011;9785;59.362;12.152;2022-08-21T11:55:34;4.53;;;1.85;;
19301;SDS011;9785;59.362;12.152;2022-08-21T11:58:05;2.70;;;1.60;;
19301;SDS011;9785;59.362;12.152;2022-08-21T12:00:36;1.87;;;1.30;;
19301;SDS011;9785;59.362;12.152;2022-08-21T12:03:09;3.30;;;1.47;;
19301;SDS011;9785;59.362;12.152;2022-08-21T12:05:39;2.45;;;1.30;;
19301;SDS011;9785;59.362;12.152;2022-08-21T12:08:12;2.63;;;1.30;;
19301;SDS011;9785;59.362;12.152;2022-08-21T12:10:41;1.70;;;1.60;;
19301;SDS011;9785;59.362;12.152;2022-08-21T12:13:11;1.80;;;1.50;;
19301;SDS011;9785;59.362;12.152;2022-08-21T12:15:41;5.03;;;1.58;;
19301;SDS011;9785;59.362;12.152;2022-08-21T12:18:20;1.97;;;1.33;;
19301;SDS011;9785;59.362;12.152;2022-08-21T12:21:01;1.63;;;1.40;;
19301;SDS011;9785;59.362;12.152;2022-08-21T12:23:31;1.97;;;1.60;;
19301;SDS011;9785;59.362;12.152;2022-08-21T12:26:01;1.97;;;1.33;;
19301;SDS011;9785;59.362;12.152;2022-08-21T12:28:30;6.70;;;1.50;;
19301;SDS011;9785;59.362;12.152;2022-08-21T12:30:59;3.90;;;1.40;;
19301;SDS011;9785;59.362;12.152;2022-08-21T12:33:29;2.70;;;1.60;;
19301;SDS011;9785;59.362;12.152;2022-08-21T12:36:03;3.83;;;1.93;;
19301;SDS011;9785;59.362;12.152;2022-08-21T12:38:33;4.67;;;1.60;;
19301;SDS011;9785;59.362;12.152;2022-08-21T12:41:04;6.07;;;1.80;;
19301;SDS011;9785;59.362;12.152;2022-08-21T12:43:34;3.30;;;1.50;;
19301;SDS011;9785;59.362;12.152;2022-08-21T12:46:03;2.80;;;1.53;;
19301;SDS011;9785;59.362;12.152;2022-08-21T12:48:35;5.50;;;1.90;;
19301;SDS011;9785;59.362;12.152;2022-08-21T12:51:08;2.83;;;1.53;;
19301;SDS011;9785;59.362;12.152;2022-08-21T12:53:40;2.73;;;1.70;;
19301;SDS011;9785;59.362;12.152;2022-08-21T12:56:10;4.50;;;1.70;;
19301;SDS011;9785;59.362;12.152;2022-08-21T12:58:39;6.30;;;1.70;;
19301;SDS011;9785;59.362;12.152;2022-08-21T13:01:13;5.10;;;1.60;;
19301;SDS011;9785;59.362;12.152;2022-08-21T13:03:46;5.50;;;1.70;;
19301;SDS011;9785;59.362;12.152;2022-08-21T13:06:32;3.03;;;1.50;;
19301;SDS011;9785;59.362;12.152;2022-08-21T13:09:04;3.53;;;1.50;;
19301;SDS011;9785;59.362;12.152;2022-08-21T13:11:33;3.37;;;1.43;;
19301;SDS011;9785;59.362;12.152;2022-08-21T13:14:05;3.43;;;1.50;;
19301;SDS011;9785;59.362;12.152;2022-08-21T13:16:39;3.83;;;1.60;;
19301;SDS011;9785;59.362;12.152;2022-08-21T13:19:11;3.43;;;1.87;;
19301;SDS011;9785;59.362;12.152;2022-08-21T13:21:41;4.57;;;1.73;;
19301;SDS011;9785;59.362;12.152;2022-08-21T13:24:12;6.27;;;1.53;;
19301;SDS011;9785;59.362;12.152;2022-08-21T13:27:01;3.57;;;1.50;;
19301;SDS011;9785;59.362;12.152;2022-08-21T13:29:31;2.10;;;1.33;;
19301;SDS011;9785;59.362;12.152;2022-08-21T13:32:04;3.60;;;1.60;;
19301;SDS011;9785;59.362;12.152;2022-08-21T13:34:35;3.80;;;1.45;;
19301;SDS011;9785;59.362;12.152;2022-08-21T13:37:05;1.67;;;1.27;;
19301;SDS011;9785;59.362;12.152;2022-08-21T13:39:35;3.97;;;1.30;;
19301;SDS011;9785;59.362;12.152;2022-08-21T13:42:04;1.50;;;0.83;;
19301;SDS011;9785;59.362;12.152;2022-08-21T13:44:40;3.37;;;1.30;;
19301;SDS011;9785;59.362;12.152;2022-08-21T13:47:09;2.30;;;1.20;;
19301;SDS011;9785;59.362;12.152;2022-08-21T13:49:42;3.87;;;1.23;;
19301;SDS011;9785;59.362;12.152;2022-08-21T13:52:13;3.90;;;1.17;;
19301;SDS011;9785;59.362;12.152;2022-08-21T13:54:43;1.27;;;1.02;;
19301;SDS011;9785;59.362;12.152;2022-08-21T13:57:17;1.30;;;1.20;;
19301;SDS011;9785;59.362;12.152;2022-08-21T13:59:46;1.42;;;1.10;;
19301;SDS011;9785;59.362;12.152;2022-08-21T14:02:18;1.48;;;1.20;;
19301;SDS011;9785;59.362;12.152;2022-08-21T14:04:51;1.38;;;1.10;;
19301;SDS011;9785;59.362;12.152;2022-08-21T14:07:21;3.17;;;1.30;;
19301;SDS011;9785;59.362;12.152;2022-08-21T14:09:52;3.28;;;1.40;;
19301;SDS011;9785;59.362;12.152;2022-08-21T14:12:24;4.93;;;1.40;;
19301;SDS011;9785;59.362;12.152;2022-08-21T14:14:53;1.23;;;1.20;;
19301;SDS011;9785;59.362;12.152;2022-08-21T14:17:27;2.00;;;1.33;;
19301;SDS011;9785;59.362;12.152;2022-08-21T14:20:00;1.60;;;1.50;;
19301;SDS011;9785;59.362;12.152;2022-08-21T14:22:30;1.80;;;1.38;;
19301;SDS011;9785;59.362;12.152;2022-08-21T14:25:00;1.70;;;1.48;;
19301;SDS011;9785;59.362;12.152;2022-08-21T14:27:28;1.93;;;1.40;;
19301;SDS011;9785;59.362;12.152;2022-08-21T14:29:58;1.60;;;1.50;;
19301;SDS011;9785;59.362;12.152;2022-08-21T14:32:27;3.83;;;1.60;;
19301;SDS011;9785;59.362;12.152;2022-08-21T14:34:58;3.80;;;1.17;;
19301;SDS011;9785;59.362;12.152;2022-08-21T14:37:27;2.57;;;1.60;;
19301;SDS011;9785;59.362;12.152;2022-08-21T14:39:56;2.07;;;1.43;;
19301;SDS011;9785;59.362;12.152;2022-08-21T14:42:24;3.63;;;1.57;;
19301;SDS011;9785;59.362;12.152;2022-08-21T14:44:53;2.13;;;1.40;;
19301;SDS011;9785;59.362;12.152;2022-08-21T14:47:24;2.13;;;1.37;;
19301;SDS011;9785;59.362;12.152;2022-08-21T14:49:52;1.87;;;1.37;;
19301;SDS011;9785;59.362;12.152;2022-08-21T14:52:21;3.10;;;1.40;;
19301;SDS011;9785;59.362;12.152;2022-08-21T14:54:51;3.13;;;1.33;;
19301;SDS011;9785;59.362;12.152;2022-08-21T14:57:19;1.33;;;1.20;;
19301;SDS011;9785;59.362;12.152;2022-08-21T14:59:48;4.20;;;1.43;;
19301;SDS011;9785;59.362;12.152;2022-08-21T15:02:16;5.13;;;1.37;;
19301;SDS011;9785;59.362;12.152;2022-08-21T15:04:45;5.10;;;1.60;;